createdAt,value
2017-11-07T00:02:03.231Z,9.30
2017-11-07T00:04:29.928Z,9.50
2017-11-07T00:06:56.575Z,9.87
2017-11-07T00:09:23.296Z,9.70
2017-11-07T00:11:50.779Z,11.90
2017-11-07T00:14:17.522Z,10.17
2017-11-07T00:16:44.236Z,10.13
2017-11-07T00:19:10.942Z,10.40
2017-11-07T00:21:37.683Z,11.00
2017-11-07T00:24:04.394Z,10.95
2017-11-07T00:26:31.063Z,11.60
2017-11-07T00:28:57.731Z,11.50
2017-11-07T00:31:24.406Z,11.10
2017-11-07T00:33:51.836Z,10.97
2017-11-07T00:36:18.576Z,12.40
2017-11-07T00:38:45.984Z,11.63
2017-11-07T00:41:12.678Z,11.57
2017-11-07T00:43:39.366Z,11.70
2017-11-07T00:46:06.752Z,11.30
2017-11-07T00:48:33.441Z,12.63
2017-11-07T00:51:00.112Z,12.60
2017-11-07T00:53:27.490Z,11.63
2017-11-07T00:55:54.210Z,12.33
2017-11-07T00:58:21.625Z,12.80
2017-11-07T01:00:48.274Z,12.87
2017-11-07T01:03:14.950Z,11.47
2017-11-07T01:05:42.379Z,13.37
2017-11-07T01:08:09.064Z,12.50
2017-11-07T01:10:35.745Z,10.93
2017-11-07T01:13:02.426Z,12.40
2017-11-07T01:15:29.084Z,12.07
2017-11-07T01:17:56.520Z,10.60
2017-11-07T01:20:23.164Z,12.43
2017-11-07T01:22:49.825Z,11.90
2017-11-07T01:25:17.257Z,10.67
2017-11-07T01:27:43.922Z,12.95
2017-11-07T01:30:11.456Z,11.53
2017-11-07T01:32:38.142Z,12.63
2017-11-07T01:35:05.568Z,13.30
2017-11-07T01:37:32.254Z,11.87
2017-11-07T01:39:58.956Z,13.50
2017-11-07T01:42:25.644Z,11.97
2017-11-07T01:44:52.332Z,13.20
2017-11-07T01:47:19.080Z,11.70
2017-11-07T01:49:45.749Z,12.63
2017-11-07T01:52:13.167Z,12.87
2017-11-07T01:54:39.862Z,14.13
2017-11-07T01:57:07.329Z,13.60
2017-11-07T01:59:34.054Z,13.83
2017-11-07T02:02:01.521Z,12.17
2017-11-07T02:04:28.945Z,12.03
2017-11-07T02:06:55.629Z,12.87
2017-11-07T02:09:23.112Z,10.40
2017-11-07T02:11:49.826Z,13.50
2017-11-07T02:14:17.239Z,12.70
2017-11-07T02:16:43.952Z,13.43
2017-11-07T02:19:10.615Z,13.30
2017-11-07T02:21:37.344Z,11.57
2017-11-07T02:24:04.127Z,12.60
2017-11-07T02:26:30.861Z,12.67
2017-11-07T02:28:57.604Z,12.50
2017-11-07T02:31:24.365Z,14.13
2017-11-07T02:33:51.910Z,13.37
2017-11-07T02:36:18.625Z,12.87
2017-11-07T02:38:45.359Z,12.50
2017-11-07T02:41:12.063Z,12.37
2017-11-07T02:43:38.807Z,12.83
2017-11-07T02:46:05.570Z,14.00
2017-11-07T02:48:33.007Z,15.00
2017-11-07T02:50:59.694Z,14.83
2017-11-07T02:53:26.407Z,12.83
2017-11-07T02:55:53.162Z,13.47
2017-11-07T02:58:19.857Z,12.50
2017-11-07T03:00:46.556Z,14.27
2017-11-07T03:03:13.976Z,13.97
2017-11-07T03:05:40.624Z,13.40
2017-11-07T03:08:07.339Z,12.83
2017-11-07T03:10:34.023Z,13.63
2017-11-07T03:13:00.704Z,13.33
2017-11-07T03:15:27.434Z,13.20
2017-11-07T03:17:54.822Z,15.80
2017-11-07T03:20:21.516Z,14.60
2017-11-07T03:22:48.213Z,14.43
2017-11-07T03:25:14.903Z,13.93
2017-11-07T03:27:41.570Z,14.40
2017-11-07T03:30:09.050Z,15.27
2017-11-07T03:32:35.736Z,13.10
2017-11-07T03:35:02.425Z,14.10
2017-11-07T03:37:29.139Z,15.10
2017-11-07T03:39:55.789Z,14.83
2017-11-07T03:42:22.435Z,15.80
2017-11-07T03:44:49.844Z,13.83
2017-11-07T03:47:16.517Z,13.33
2017-11-07T03:49:43.190Z,13.10
2017-11-07T03:52:10.639Z,13.10
2017-11-07T03:54:38.055Z,14.37
2017-11-07T03:57:04.734Z,13.87
2017-11-07T03:59:32.196Z,15.80
2017-11-07T04:01:58.859Z,14.10
2017-11-07T04:04:26.272Z,12.80
2017-11-07T04:06:52.990Z,13.50
2017-11-07T04:09:19.670Z,13.80
2017-11-07T04:11:46.338Z,13.47
2017-11-07T04:14:13.769Z,13.77
2017-11-07T04:16:40.461Z,14.60
2017-11-07T04:19:07.110Z,14.10
2017-11-07T04:21:33.834Z,13.17
2017-11-07T04:24:01.251Z,12.20
2017-11-07T04:26:27.903Z,13.70
2017-11-07T04:28:54.561Z,13.43
2017-11-07T04:31:21.226Z,14.53
2017-11-07T04:33:48.657Z,13.37
2017-11-07T04:36:15.342Z,14.43
2017-11-07T04:38:42.972Z,14.53
2017-11-07T04:41:09.664Z,12.30
2017-11-07T04:43:36.342Z,14.57
2017-11-07T04:46:03.046Z,14.90
2017-11-07T04:48:29.777Z,14.30
2017-11-07T04:50:56.488Z,14.53
2017-11-07T04:53:23.135Z,14.93
2017-11-07T04:55:50.545Z,14.57
2017-11-07T04:58:17.215Z,13.40
2017-11-07T05:00:43.860Z,14.70
2017-11-07T05:03:10.542Z,13.33
2017-11-07T05:05:37.959Z,14.33
2017-11-07T05:08:04.651Z,13.93
2017-11-07T05:10:31.304Z,13.90
2017-11-07T05:12:57.991Z,13.90
2017-11-07T05:15:24.655Z,13.40
2017-11-07T05:17:52.084Z,14.57
2017-11-07T05:20:19.530Z,13.07
2017-11-07T05:22:46.203Z,14.07
2017-11-07T05:25:12.858Z,14.53
2017-11-07T05:27:39.558Z,14.67
2017-11-07T05:30:06.222Z,14.80
2017-11-07T05:32:32.875Z,13.20
2017-11-07T05:34:59.551Z,13.00
2017-11-07T05:37:26.946Z,14.00
2017-11-07T05:39:53.627Z,14.45
2017-11-07T05:42:20.329Z,13.30
2017-11-07T05:44:46.968Z,15.07
2017-11-07T05:47:13.674Z,13.47
2017-11-07T05:49:41.147Z,14.07
2017-11-07T05:52:08.612Z,14.57
2017-11-07T05:54:35.364Z,15.97
2017-11-07T05:57:02.099Z,15.47
2017-11-07T05:59:28.752Z,14.10
2017-11-07T06:01:55.416Z,15.47
2017-11-07T06:04:22.918Z,15.00
2017-11-07T06:06:50.352Z,14.70
2017-11-07T06:09:17.021Z,13.87
2017-11-07T06:11:44.459Z,15.13
2017-11-07T06:14:11.196Z,15.20
2017-11-07T06:16:37.925Z,14.97
2017-11-07T06:19:04.687Z,13.48
2017-11-07T06:21:31.345Z,14.67
2017-11-07T06:23:58.030Z,17.40
2017-11-07T06:26:24.715Z,15.10
2017-11-07T06:28:51.426Z,14.20
2017-11-07T06:31:18.107Z,15.30
2017-11-07T06:33:44.803Z,14.17
2017-11-07T06:36:11.520Z,14.60
2017-11-07T06:38:38.920Z,14.93
2017-11-07T06:41:05.593Z,14.30
2017-11-07T06:43:32.234Z,14.30
2017-11-07T06:45:58.894Z,14.93
2017-11-07T06:48:25.573Z,16.60
2017-11-07T06:50:52.244Z,15.03
2017-11-07T06:53:18.930Z,16.57
2017-11-07T06:55:45.672Z,16.03
2017-11-07T06:58:12.363Z,15.80
2017-11-07T07:00:39.029Z,16.07
2017-11-07T07:03:05.737Z,16.60
2017-11-07T07:05:32.408Z,16.10
2017-11-07T07:07:59.101Z,17.10
2017-11-07T07:10:26.594Z,15.27
2017-11-07T07:12:53.263Z,16.58
2017-11-07T07:15:19.944Z,17.60
2017-11-07T07:17:47.361Z,17.07
2017-11-07T07:20:14.059Z,17.70
2017-11-07T07:22:41.468Z,17.10
2017-11-07T07:25:08.207Z,15.47
2017-11-07T07:27:34.857Z,15.07
2017-11-07T07:30:01.519Z,15.73
2017-11-07T07:32:28.193Z,17.50
2017-11-07T07:34:54.903Z,17.20
2017-11-07T07:37:21.556Z,15.77
2017-11-07T07:39:48.266Z,16.50
2017-11-07T07:42:14.922Z,16.00
2017-11-07T07:44:41.599Z,16.10
2017-11-07T07:47:09.018Z,16.40
2017-11-07T07:49:35.718Z,16.83
2017-11-07T07:52:02.397Z,15.80
2017-11-07T07:54:29.056Z,14.83
2017-11-07T07:56:55.748Z,17.10
2017-11-07T07:59:22.429Z,17.23
2017-11-07T08:01:49.139Z,17.70
2017-11-07T08:04:17.082Z,17.93
2017-11-07T08:06:44.599Z,16.77
2017-11-07T08:09:11.385Z,15.70
2017-11-07T08:11:38.143Z,17.07
2017-11-07T08:14:05.634Z,16.43
2017-11-07T08:16:32.480Z,16.50
2017-11-07T08:18:59.142Z,15.87
2017-11-07T08:21:25.881Z,15.33
2017-11-07T08:23:52.578Z,16.40
2017-11-07T08:26:19.993Z,17.40
2017-11-07T08:28:46.687Z,16.20
2017-11-07T08:31:14.220Z,16.27
2017-11-07T08:33:41.676Z,14.90
2017-11-07T08:36:08.339Z,16.60
2017-11-07T08:38:36.676Z,15.97
2017-11-07T08:41:03.366Z,17.50
2017-11-07T08:43:30.813Z,17.50
2017-11-07T08:45:57.681Z,15.93
2017-11-07T08:48:25.071Z,16.50
2017-11-07T08:50:52.479Z,17.57
2017-11-07T08:53:19.159Z,16.53
2017-11-07T08:55:45.842Z,16.13
2017-11-07T08:58:12.537Z,16.90
2017-11-07T09:00:39.335Z,16.67
2017-11-07T09:03:06.029Z,16.60
2017-11-07T09:05:33.422Z,17.10
2017-11-07T09:08:00.178Z,16.40
2017-11-07T09:10:26.943Z,15.63
2017-11-07T09:12:53.641Z,15.77
2017-11-07T09:15:20.535Z,16.13
2017-11-07T09:17:47.251Z,17.87
2017-11-07T09:20:14.098Z,16.97
2017-11-07T09:22:40.835Z,17.63
2017-11-07T09:25:07.521Z,16.97
2017-11-07T09:27:34.201Z,17.40
2017-11-07T09:30:00.898Z,17.60
2017-11-07T09:32:27.551Z,17.03
2017-11-07T09:34:54.950Z,17.93
2017-11-07T09:37:21.634Z,17.87
2017-11-07T09:39:48.302Z,16.83
2017-11-07T09:42:15.740Z,16.80
2017-11-07T09:44:42.431Z,18.57
2017-11-07T09:47:09.073Z,18.77
2017-11-07T09:49:35.754Z,18.13
2017-11-07T09:52:02.454Z,17.83
2017-11-07T09:54:29.177Z,18.80
2017-11-07T09:56:56.618Z,17.90
2017-11-07T09:59:23.303Z,18.63
2017-11-07T10:01:49.976Z,18.97
2017-11-07T10:04:16.643Z,19.43
2017-11-07T10:06:43.408Z,18.57
2017-11-07T10:09:10.089Z,18.63
2017-11-07T10:11:36.764Z,19.97
2017-11-07T10:14:03.432Z,20.63
2017-11-07T10:16:30.075Z,20.63
2017-11-07T10:18:56.757Z,21.53
2017-11-07T10:21:23.517Z,21.70
2017-11-07T10:23:50.286Z,22.27
2017-11-07T10:26:17.531Z,22.33
2017-11-07T10:28:44.290Z,22.90
2017-11-07T10:31:11.002Z,22.00
2017-11-07T10:33:38.530Z,23.60
2017-11-07T10:36:06.047Z,20.17
2017-11-07T10:38:32.724Z,24.60
2017-11-07T10:41:00.514Z,25.33
2017-11-07T10:43:27.617Z,22.50
2017-11-07T10:45:54.441Z,18.80
2017-11-07T10:48:21.111Z,18.17
2017-11-07T10:50:47.795Z,19.37
2017-11-07T10:53:14.455Z,18.13
2017-11-07T10:55:41.131Z,18.50
2017-11-07T10:58:07.885Z,20.10
2017-11-07T11:00:34.703Z,21.37
2017-11-07T11:03:01.383Z,21.07
2017-11-07T11:05:28.109Z,21.90
2017-11-07T11:07:55.749Z,19.90
2017-11-07T11:10:22.525Z,21.43
2017-11-07T11:12:49.231Z,21.70
2017-11-07T11:15:15.930Z,20.27
2017-11-07T11:17:42.580Z,18.97
2017-11-07T11:20:10.918Z,17.53
2017-11-07T11:22:37.704Z,19.20
2017-11-07T11:25:05.218Z,19.70
2017-11-07T11:27:31.972Z,20.57
2017-11-07T11:29:58.670Z,20.90
2017-11-07T11:32:26.090Z,20.60
2017-11-07T11:34:52.825Z,23.30
2017-11-07T11:37:19.574Z,21.30
2017-11-07T11:39:47.015Z,22.63
2017-11-07T11:42:13.703Z,20.63
2017-11-07T11:44:40.424Z,20.77
2017-11-07T11:47:07.127Z,19.80
2017-11-07T11:49:33.805Z,20.63
2017-11-07T11:52:00.500Z,19.80
2017-11-07T11:54:27.214Z,20.40
2017-11-07T11:56:55.224Z,20.60
2017-11-07T11:59:21.919Z,20.43
2017-11-07T12:01:48.682Z,19.80
2017-11-07T12:04:16.163Z,20.23
2017-11-07T12:06:43.570Z,20.43
2017-11-07T12:09:10.287Z,21.10
2017-11-07T12:11:36.988Z,20.77
2017-11-07T12:14:03.675Z,21.47
2017-11-07T12:16:30.361Z,20.33
2017-11-07T12:18:57.092Z,22.13
2017-11-07T12:21:23.811Z,21.50
2017-11-07T12:23:50.509Z,21.00
2017-11-07T12:26:18.038Z,21.80
2017-11-07T12:28:44.775Z,20.80
2017-11-07T12:31:12.246Z,21.60
2017-11-07T12:33:38.993Z,21.50
2017-11-07T12:36:05.740Z,23.00
2017-11-07T12:38:32.440Z,22.87
2017-11-07T12:40:59.131Z,21.57
2017-11-07T12:43:25.811Z,20.47
2017-11-07T12:45:53.209Z,22.20
2017-11-07T12:48:19.869Z,21.77
2017-11-07T12:51:05.951Z,21.37
2017-11-07T12:53:32.687Z,21.80
2017-11-07T12:55:59.382Z,22.00
2017-11-07T12:58:26.811Z,22.73
2017-11-07T13:00:54.273Z,22.70
2017-11-07T13:03:20.944Z,23.70
2017-11-07T13:05:48.496Z,23.07
2017-11-07T13:08:15.211Z,23.60
2017-11-07T13:10:41.842Z,23.60
2017-11-07T13:13:08.524Z,24.50
2017-11-07T13:15:35.215Z,22.33
2017-11-07T13:18:01.893Z,23.80
2017-11-07T13:20:28.565Z,22.83
2017-11-07T13:22:55.243Z,22.80
2017-11-07T13:25:21.940Z,23.73
2017-11-07T13:27:48.612Z,21.83
2017-11-07T13:30:16.062Z,22.30
2017-11-07T13:32:43.456Z,24.93
2017-11-07T13:35:10.151Z,26.47
2017-11-07T13:37:36.862Z,27.20
2017-11-07T13:40:03.615Z,27.90
2017-11-07T13:42:30.342Z,24.07
2017-11-07T13:44:57.019Z,26.90
2017-11-07T13:47:23.654Z,29.13
2017-11-07T13:49:50.312Z,26.33
2017-11-07T13:52:16.993Z,28.77
2017-11-07T13:54:43.648Z,31.50
2017-11-07T13:57:10.301Z,26.20
2017-11-07T13:59:36.978Z,23.00
2017-11-07T14:02:03.646Z,28.60
2017-11-07T14:04:31.045Z,28.30
2017-11-07T14:06:57.701Z,24.90
2017-11-07T14:09:24.425Z,28.90
2017-11-07T14:11:51.085Z,26.87
2017-11-07T14:14:17.803Z,27.33
2017-11-07T14:16:44.470Z,29.10
2017-11-07T14:19:11.111Z,27.73
2017-11-07T14:21:37.844Z,27.03
2017-11-07T14:24:04.526Z,28.90
2017-11-07T14:26:31.211Z,29.23
2017-11-07T14:28:57.928Z,29.67
2017-11-07T14:31:25.327Z,31.33
2017-11-07T14:33:51.990Z,34.00
2017-11-07T14:36:18.695Z,33.17
2017-11-07T14:38:45.363Z,33.70
2017-11-07T14:41:12.027Z,32.17
2017-11-07T14:43:38.724Z,32.67
2017-11-07T14:46:05.428Z,34.20
2017-11-07T14:48:32.083Z,33.63
2017-11-07T14:50:59.519Z,33.20
2017-11-07T14:53:26.251Z,32.73
2017-11-07T14:55:52.920Z,35.87
2017-11-07T14:58:19.630Z,34.43
2017-11-07T15:00:46.332Z,36.53
2017-11-07T15:03:14.735Z,35.90
2017-11-07T15:05:41.495Z,32.87
2017-11-07T15:08:08.193Z,33.10
2017-11-07T15:10:35.614Z,32.80
2017-11-07T15:13:02.314Z,36.47
2017-11-07T15:15:29.011Z,30.83
2017-11-07T15:17:55.667Z,32.40
2017-11-07T15:20:22.387Z,33.93
2017-11-07T15:22:49.074Z,30.97
2017-11-07T15:25:16.463Z,32.57
2017-11-07T15:27:43.134Z,33.93
2017-11-07T15:30:09.799Z,35.10
2017-11-07T15:32:37.218Z,35.00
2017-11-07T15:35:03.929Z,41.23
2017-11-07T15:37:30.590Z,41.33
2017-11-07T15:39:57.253Z,40.57
2017-11-07T15:42:23.957Z,42.87
2017-11-07T15:44:50.629Z,37.47
2017-11-07T15:47:17.287Z,37.77
2017-11-07T15:49:44.000Z,39.37
2017-11-07T15:52:10.762Z,41.00
2017-11-07T15:54:37.466Z,41.80
2017-11-07T15:57:04.896Z,39.37
2017-11-07T15:59:31.566Z,42.07
2017-11-07T16:01:58.977Z,42.80
2017-11-07T16:04:25.650Z,44.50
2017-11-07T16:06:52.369Z,43.17
2017-11-07T16:09:19.202Z,47.37
2017-11-07T16:11:45.891Z,47.10
2017-11-07T16:14:12.552Z,45.57
2017-11-07T16:16:39.991Z,42.37
2017-11-07T16:19:06.679Z,40.30
2017-11-07T16:21:33.349Z,39.30
2017-11-07T16:24:00.048Z,41.40
2017-11-07T16:26:26.762Z,38.83
2017-11-07T16:28:53.523Z,40.67
2017-11-07T16:31:20.937Z,37.17
2017-11-07T16:33:47.650Z,39.97
2017-11-07T16:36:14.323Z,36.87
2017-11-07T16:38:41.005Z,40.40
2017-11-07T16:41:08.455Z,38.30
2017-11-07T16:43:35.981Z,39.17
2017-11-07T16:46:02.695Z,41.60
2017-11-07T16:48:29.405Z,41.10
2017-11-07T16:50:56.115Z,42.13
2017-11-07T16:53:22.778Z,40.57
2017-11-07T16:55:49.564Z,45.75
2017-11-07T16:58:17.026Z,48.47
2017-11-07T17:00:44.439Z,45.97
2017-11-07T17:03:11.133Z,47.67
2017-11-07T17:05:37.798Z,46.00
2017-11-07T17:08:04.483Z,46.13
2017-11-07T17:10:31.204Z,40.47
2017-11-07T17:12:57.876Z,41.77
2017-11-07T17:15:24.558Z,41.97
2017-11-07T17:17:51.230Z,36.50
2017-11-07T17:20:17.922Z,38.30
2017-11-07T17:22:45.330Z,38.50
2017-11-07T17:25:12.135Z,37.00
2017-11-07T17:27:38.831Z,41.03
2017-11-07T17:30:05.503Z,40.80
2017-11-07T17:32:32.991Z,37.47
2017-11-07T17:34:59.684Z,38.27
2017-11-07T17:37:26.419Z,42.80
2017-11-07T17:39:53.107Z,40.70
2017-11-07T17:42:20.530Z,40.60
2017-11-07T17:44:47.216Z,37.60
2017-11-07T17:47:14.630Z,39.27
2017-11-07T17:49:41.328Z,38.63
2017-11-07T17:52:08.041Z,42.50
2017-11-07T17:54:35.475Z,40.17
2017-11-07T17:57:02.178Z,41.20
2017-11-07T17:59:28.868Z,39.63
2017-11-07T18:01:55.597Z,40.67
2017-11-07T18:04:23.027Z,43.00
2017-11-07T18:06:49.762Z,43.20
2017-11-07T18:09:16.454Z,43.78
2017-11-07T18:11:43.175Z,41.95
2017-11-07T18:14:09.851Z,38.27
2017-11-07T18:16:36.683Z,43.37
2017-11-07T18:19:03.879Z,40.35
2017-11-07T18:21:31.307Z,42.00
2017-11-07T18:23:58.067Z,44.27
2017-11-07T18:26:24.776Z,39.83
2017-11-07T18:28:51.450Z,39.57
2017-11-07T18:31:18.258Z,41.13
2017-11-07T18:33:44.998Z,44.58
2017-11-07T18:36:11.695Z,43.17
2017-11-07T18:38:39.124Z,41.78
2017-11-07T18:41:05.852Z,43.83
2017-11-07T18:43:32.540Z,44.50
2017-11-07T18:45:59.978Z,44.50
2017-11-07T18:48:26.669Z,47.30
2017-11-07T18:50:53.343Z,43.43
2017-11-07T18:53:20.861Z,42.40
2017-11-07T18:55:48.346Z,42.20
2017-11-07T18:58:15.052Z,42.35
2017-11-07T19:00:41.785Z,43.43
2017-11-07T19:03:08.455Z,45.87
2017-11-07T19:05:35.181Z,45.30
2017-11-07T19:08:02.658Z,45.10
2017-11-07T19:10:30.270Z,42.10
2017-11-07T19:12:57.001Z,41.67
2017-11-07T19:15:23.721Z,42.57
2017-11-07T19:17:50.750Z,42.53
2017-11-07T19:20:19.352Z,43.03
2017-11-07T19:22:47.494Z,42.27
2017-11-07T19:25:14.295Z,40.63
2017-11-07T19:27:41.005Z,42.53
2017-11-07T19:30:08.491Z,42.03
2017-11-07T19:32:35.275Z,40.73
2017-11-07T19:35:02.038Z,41.30
2017-11-07T19:37:28.757Z,43.23
2017-11-07T19:39:55.480Z,40.40
2017-11-07T19:42:22.219Z,40.47
2017-11-07T19:44:48.961Z,38.53
2017-11-07T19:47:15.697Z,40.30
2017-11-07T19:49:43.503Z,41.70
2017-11-07T19:52:10.385Z,41.80
2017-11-07T19:54:37.971Z,40.30
2017-11-07T19:57:05.390Z,42.60
2017-11-07T19:59:32.160Z,39.17
2017-11-07T20:01:59.725Z,43.00
2017-11-07T20:04:26.518Z,46.67
2017-11-07T20:06:54.326Z,43.70
2017-11-07T20:09:21.044Z,40.43
2017-11-07T20:11:47.728Z,41.20
2017-11-07T20:14:15.182Z,41.53
2017-11-07T20:16:42.005Z,44.53
2017-11-07T20:19:08.736Z,43.70
2017-11-07T20:21:36.205Z,43.73
2017-11-07T20:24:04.766Z,42.87
2017-11-07T20:26:31.460Z,45.20
2017-11-07T20:28:58.192Z,45.83
2017-11-07T20:31:24.904Z,39.60
2017-11-07T20:33:52.469Z,44.80
2017-11-07T20:36:19.263Z,42.93
2017-11-07T20:38:46.316Z,45.10
2017-11-07T20:41:13.950Z,43.63
2017-11-07T20:43:41.610Z,45.33
2017-11-07T20:46:08.380Z,45.27
2017-11-07T20:48:35.138Z,49.83
2017-11-07T20:51:02.656Z,49.60
2017-11-07T20:53:30.058Z,45.83
2017-11-07T20:55:56.726Z,47.90
2017-11-07T20:58:24.060Z,45.07
2017-11-07T21:00:51.506Z,43.43
2017-11-07T21:03:18.189Z,44.03
2017-11-07T21:05:44.942Z,46.40
2017-11-07T21:08:11.802Z,46.10
2017-11-07T21:10:38.576Z,45.27
2017-11-07T21:13:05.648Z,47.00
2017-11-07T21:15:33.083Z,45.40
2017-11-07T21:17:59.773Z,46.57
2017-11-07T21:20:26.482Z,47.13
2017-11-07T21:22:53.197Z,45.57
2017-11-07T21:25:19.974Z,46.10
2017-11-07T21:27:46.719Z,45.83
2017-11-07T21:30:13.441Z,47.03
2017-11-07T21:32:41.068Z,44.40
2017-11-07T21:35:07.823Z,43.63
2017-11-07T21:37:35.151Z,48.90
2017-11-07T21:40:02.612Z,45.50
2017-11-07T21:42:30.050Z,46.80
2017-11-07T21:44:56.762Z,46.73
2017-11-07T21:47:23.447Z,48.10
2017-11-07T21:49:50.156Z,45.37
2017-11-07T21:52:16.903Z,47.07
2017-11-07T21:54:43.596Z,46.13
2017-11-07T21:57:11.081Z,51.00
2017-11-07T21:59:37.767Z,48.37
2017-11-07T22:02:04.502Z,46.03
2017-11-07T22:04:31.180Z,50.37
2017-11-07T22:06:58.581Z,51.87
2017-11-07T22:09:26.254Z,49.10
2017-11-07T22:11:53.746Z,49.03
2017-11-07T22:14:20.508Z,53.20
2017-11-07T22:16:52.752Z,50.40
2017-11-07T22:19:20.380Z,52.63
2017-11-07T22:21:48.980Z,53.40
2017-11-07T22:24:15.669Z,50.70
2017-11-07T22:26:42.386Z,50.63
2017-11-07T22:29:09.952Z,48.33
2017-11-07T22:31:36.676Z,50.65
2017-11-07T22:34:04.152Z,50.53
2017-11-07T22:36:30.812Z,52.57
2017-11-07T22:38:57.473Z,50.90
2017-11-07T22:41:24.258Z,50.60
2017-11-07T22:43:51.921Z,53.57
2017-11-07T22:46:18.591Z,55.87
2017-11-07T22:48:46.284Z,53.87
2017-11-07T22:51:12.969Z,55.97
2017-11-07T22:53:39.633Z,52.97
2017-11-07T22:56:06.320Z,55.33
2017-11-07T22:58:33.712Z,51.67
2017-11-07T23:01:00.376Z,49.73
2017-11-07T23:03:27.057Z,53.70
2017-11-07T23:05:53.730Z,52.70
2017-11-07T23:08:20.404Z,52.17
2017-11-07T23:10:47.381Z,53.23
2017-11-07T23:13:19.141Z,50.37
2017-11-07T23:15:45.915Z,53.17
2017-11-07T23:18:13.361Z,50.17
2017-11-07T23:20:40.041Z,56.53
2017-11-07T23:23:06.718Z,54.30
2017-11-07T23:25:33.458Z,56.83
2017-11-07T23:28:00.124Z,58.57
2017-11-07T23:30:26.836Z,60.57
2017-11-07T23:32:53.501Z,54.37
2017-11-07T23:35:20.154Z,54.30
2017-11-07T23:37:46.853Z,53.20
2017-11-07T23:40:13.553Z,51.80
2017-11-07T23:42:40.684Z,50.27
2017-11-07T23:45:07.347Z,51.13
2017-11-07T23:47:34.806Z,51.30
2017-11-07T23:50:04.907Z,49.23
2017-11-07T23:52:31.623Z,48.00
2017-11-07T23:54:58.406Z,48.10
2017-11-07T23:57:25.121Z,46.80
2017-11-07T23:59:51.799Z,48.43
